Time;durP1;ratioP1;P1;durP2;ratioP2;P2;SDS_P1;SDS_P2;PMS_P1;PMS_P2;Temp;Humidity;BMP_temperature;BMP_pressure;BME280_temperature;BME280_humidity;BME280_pressure;Samples;Min_cycle;Max_cycle;Signal;HPM_P1;HPM_P2
2022/04/28 00:01:24;;;;;;;12.63;5.25;;;;;;;;;;5052810;28;20127;-76
2022/04/28 00:03:51;;;;;;;9.68;4.20;;;;;;;;;;5052462;28;20037;-76
2022/04/28 00:06:17;;;;;;;10.18;4.85;;;;;;;;;;5052914;28;20120;-76
2022/04/28 00:08:43;;;;;;;11.27;4.78;;;;;;;;;;5052903;28;20107;-76
2022/04/28 00:11:11;;;;;;;10.45;4.38;;;;;;;;;;5052518;28;20044;-76
2022/04/28 00:13:38;;;;;;;10.88;4.70;;;;;;;;;;5052925;28;20132;-76
2022/04/28 00:16:04;;;;;;;8.93;4.18;;;;;;;;;;5052020;28;20063;-76
2022/04/28 00:18:30;;;;;;;7.53;3.53;;;;;;;;;;5052863;28;20033;-76
2022/04/28 00:20:56;;;;;;;7.90;4.13;;;;;;;;;;5052361;28;20083;-76
2022/04/28 00:23:22;;;;;;;9.20;4.32;;;;;;;;;;5053016;28;20037;-76
2022/04/28 00:25:48;;;;;;;11.88;5.32;;;;;;;;;;5050637;28;20536;-76
2022/04/28 00:28:20;;;;;;;13.57;4.50;;;;;;;;;;5052570;28;20056;-76
2022/04/28 00:30:46;;;;;;;8.93;5.13;;;;;;;;;;5052282;28;20075;-76
2022/04/28 00:33:12;;;;;;;11.95;5.45;;;;;;;;;;5034444;28;20144;-76
2022/04/28 00:35:38;;;;;;;12.40;5.47;;;;;;;;;;5051860;28;20502;-76
2022/04/28 00:38:05;;;;;;;8.82;4.88;;;;;;;;;;5054510;28;20036;-76
2022/04/28 00:40:31;;;;;;;15.85;6.05;;;;;;;;;;5052184;28;20107;-76
2022/04/28 00:43:18;;;;;;;10.50;5.63;;;;;;;;;;5047298;28;20041;-76
2022/04/28 00:45:43;;;;;;;12.20;5.50;;;;;;;;;;5032321;28;20038;-76
2022/04/28 00:50:57;;;;;;;10.65;5.63;;;;;;;;;;5042485;28;20028;-76
2022/04/28 00:53:24;;;;;;;9.43;5.15;;;;;;;;;;5049642;28;20154;-76
2022/04/28 00:55:50;;;;;;;11.48;4.53;;;;;;;;;;5045131;28;20547;-76
2022/04/28 00:58:16;;;;;;;8.63;4.50;;;;;;;;;;5051827;28;20047;-76
2022/04/28 01:00:43;;;;;;;10.32;4.78;;;;;;;;;;5051129;28;20029;-76
2022/04/28 01:03:09;;;;;;;8.10;4.18;;;;;;;;;;5051752;28;20416;-76
2022/04/28 01:05:36;;;;;;;7.53;3.63;;;;;;;;;;5051171;28;20394;-76
2022/04/28 01:08:02;;;;;;;13.23;4.07;;;;;;;;;;5051786;28;20110;-76
2022/04/28 01:10:28;;;;;;;9.05;4.35;;;;;;;;;;5051577;28;20032;-76
2022/04/28 01:12:54;;;;;;;8.95;4.22;;;;;;;;;;5032432;28;20434;-76
2022/04/28 01:15:21;;;;;;;10.35;4.63;;;;;;;;;;5033950;28;20045;-76
2022/04/28 01:17:47;;;;;;;8.40;3.75;;;;;;;;;;5037907;28;20060;-76
2022/04/28 01:20:13;;;;;;;8.65;3.38;;;;;;;;;;5051883;28;20075;-76
2022/04/28 01:22:40;;;;;;;11.13;4.60;;;;;;;;;;5058545;28;20032;-76
2022/04/28 01:25:07;;;;;;;8.88;4.78;;;;;;;;;;5051574;28;20045;-76
2022/04/28 01:27:37;;;;;;;8.55;5.18;;;;;;;;;;5050350;28;20695;-76
2022/04/28 01:30:04;;;;;;;12.82;4.93;;;;;;;;;;5051626;28;20037;-76
2022/04/28 01:32:30;;;;;;;10.48;5.22;;;;;;;;;;5050263;28;20036;-76
2022/04/28 01:34:57;;;;;;;11.40;5.28;;;;;;;;;;5038821;28;20033;-76
2022/04/28 01:37:25;;;;;;;11.75;6.28;;;;;;;;;;5051356;28;20056;-76
2022/04/28 01:39:51;;;;;;;12.93;6.18;;;;;;;;;;5051363;28;20492;-76
2022/04/28 01:42:17;;;;;;;11.15;6.05;;;;;;;;;;5050891;28;20028;-76
2022/04/28 01:44:43;;;;;;;12.05;6.38;;;;;;;;;;5046682;28;20044;-76
2022/04/28 01:47:09;;;;;;;10.23;6.72;;;;;;;;;;5050737;28;20037;-76
2022/04/28 01:49:35;;;;;;;11.35;5.85;;;;;;;;;;5050686;28;20033;-76
2022/04/28 01:54:58;;;;;;;15.18;6.13;;;;;;;;;;5060922;28;20043;-76
2022/04/28 01:57:27;;;;;;;12.25;6.57;;;;;;;;;;5031231;28;20423;-76
2022/04/28 01:59:54;;;;;;;13.30;7.60;;;;;;;;;;5061115;28;20065;-76
2022/04/28 02:02:21;;;;;;;10.88;7.05;;;;;;;;;;5070423;28;20116;-76
2022/04/28 02:04:48;;;;;;;10.25;6.90;;;;;;;;;;5063175;28;20503;-76
2022/04/28 02:07:15;;;;;;;13.15;7.80;;;;;;;;;;5070595;28;20359;-76
2022/04/28 02:09:41;;;;;;;11.90;6.90;;;;;;;;;;5063305;28;20502;-76
2022/04/28 02:12:08;;;;;;;11.20;5.97;;;;;;;;;;5051192;28;20421;-76
2022/04/28 02:14:34;;;;;;;10.27;5.97;;;;;;;;;;5046122;28;20029;-76
2022/04/28 02:17:01;;;;;;;11.30;6.20;;;;;;;;;;5050689;28;20454;-76
2022/04/28 02:19:27;;;;;;;12.93;7.00;;;;;;;;;;5052821;28;20120;-76
2022/04/28 02:21:54;;;;;;;11.57;6.90;;;;;;;;;;5069183;28;20058;-76
2022/04/28 02:24:21;;;;;;;11.75;6.82;;;;;;;;;;5049966;28;20067;-76
2022/04/28 02:26:47;;;;;;;12.25;6.38;;;;;;;;;;5050371;28;20067;-76
2022/04/28 02:29:13;;;;;;;12.05;6.88;;;;;;;;;;5050382;28;20037;-76
2022/04/28 02:31:39;;;;;;;11.05;7.10;;;;;;;;;;5049738;28;20727;-76
2022/04/28 02:34:05;;;;;;;12.98;7.85;;;;;;;;;;5050375;28;20067;-76
2022/04/28 02:36:32;;;;;;;10.70;6.82;;;;;;;;;;5049696;28;20035;-75
2022/04/28 02:38:58;;;;;;;13.23;7.00;;;;;;;;;;5050355;28;20478;-76
2022/04/28 02:41:24;;;;;;;13.57;7.78;;;;;;;;;;5036746;28;20033;-76
2022/04/28 02:43:50;;;;;;;14.10;7.63;;;;;;;;;;5030113;28;20041;-76
2022/04/28 02:46:17;;;;;;;13.65;8.15;;;;;;;;;;5040871;28;20032;-76
2022/04/28 02:48:43;;;;;;;12.10;8.20;;;;;;;;;;5050093;28;20028;-76
2022/04/28 02:51:09;;;;;;;11.27;7.00;;;;;;;;;;5031969;28;20528;-76
2022/04/28 02:53:36;;;;;;;13.50;8.25;;;;;;;;;;5050351;28;20041;-76
2022/04/28 02:56:02;;;;;;;15.57;7.68;;;;;;;;;;5049446;28;20060;-75
2022/04/28 02:58:28;;;;;;;13.85;7.78;;;;;;;;;;5050110;28;20094;-76
2022/04/28 03:00:54;;;;;;;13.43;7.43;;;;;;;;;;5049909;28;20112;-76
2022/04/28 03:03:20;;;;;;;13.05;7.28;;;;;;;;;;5049850;28;20466;-76
2022/04/28 03:11:16;;;;;;;14.57;7.93;;;;;;;;;;5060937;28;20085;-76
2022/04/28 03:13:42;;;;;;;13.38;7.22;;;;;;;;;;5049476;28;20033;-76
2022/04/28 03:16:08;;;;;;;12.45;7.05;;;;;;;;;;5049248;28;20021;-76
2022/04/28 03:18:34;;;;;;;11.55;7.40;;;;;;;;;;5049380;28;20041;-76
2022/04/28 03:21:01;;;;;;;13.50;6.70;;;;;;;;;;5049069;28;20099;-76
2022/04/28 03:23:27;;;;;;;17.05;7.75;;;;;;;;;;5048820;28;20842;-76
2022/04/28 03:25:53;;;;;;;10.95;7.13;;;;;;;;;;5049567;28;20037;-76
2022/04/28 03:28:21;;;;;;;10.43;6.97;;;;;;;;;;5049279;28;20041;-76
2022/04/28 03:30:47;;;;;;;11.55;6.97;;;;;;;;;;5049256;28;20534;-76
2022/04/28 03:33:16;;;;;;;11.07;7.32;;;;;;;;;;5048441;28;20037;-76
2022/04/28 03:35:43;;;;;;;15.35;7.30;;;;;;;;;;5054135;28;20035;-76
2022/04/28 03:38:12;;;;;;;9.05;6.55;;;;;;;;;;5049093;28;20164;-76
2022/04/28 03:40:38;;;;;;;12.38;7.00;;;;;;;;;;5049501;28;20471;-76
2022/04/28 03:43:05;;;;;;;13.52;7.18;;;;;;;;;;5049549;28;20037;-76
2022/04/28 03:45:31;;;;;;;10.07;5.68;;;;;;;;;;5040047;28;20108;-76
2022/04/28 03:47:58;;;;;;;16.83;7.50;;;;;;;;;;5030223;28;20065;-76
2022/04/28 03:50:25;;;;;;;13.13;6.90;;;;;;;;;;5048451;28;20033;-76
2022/04/28 03:52:51;;;;;;;13.90;5.93;;;;;;;;;;5049439;28;20033;-76
2022/04/28 03:55:17;;;;;;;12.27;7.25;;;;;;;;;;5049353;28;20029;-76
2022/04/28 03:57:43;;;;;;;12.85;5.45;;;;;;;;;;5049263;28;20032;-76
2022/04/28 04:00:09;;;;;;;12.45;5.63;;;;;;;;;;5048468;28;20029;-76
2022/04/28 04:02:35;;;;;;;10.88;5.45;;;;;;;;;;5049189;28;20025;-76
2022/04/28 04:05:02;;;;;;;10.20;5.70;;;;;;;;;;5047877;28;20482;-76
2022/04/28 04:07:31;;;;;;;9.23;5.22;;;;;;;;;;5044921;28;20044;-76
2022/04/28 04:09:58;;;;;;;10.55;5.30;;;;;;;;;;5050583;28;20032;-76
2022/04/28 04:12:25;;;;;;;10.25;4.93;;;;;;;;;;5057322;28;20924;-76
2022/04/28 04:14:52;;;;;;;9.30;4.50;;;;;;;;;;5049179;28;20032;-76
2022/04/28 04:17:18;;;;;;;9.25;4.60;;;;;;;;;;5048890;28;20036;-76
2022/04/28 04:19:44;;;;;;;9.32;5.00;;;;;;;;;;5049514;28;20060;-76
2022/04/28 04:22:11;;;;;;;11.50;5.22;;;;;;;;;;5048424;28;20439;-76
2022/04/28 04:24:37;;;;;;;12.55;5.00;;;;;;;;;;5048255;28;20132;-76
2022/04/28 04:27:03;;;;;;;10.82;5.43;;;;;;;;;;5048024;28;20067;-76
2022/04/28 04:29:29;;;;;;;10.10;6.00;;;;;;;;;;5051777;28;20033;-76
2022/04/28 04:34:40;;;;;;;15.35;7.05;;;;;;;;;;5052310;28;20044;-76
2022/04/28 04:37:06;;;;;;;13.13;6.32;;;;;;;;;;5066270;28;20064;-76
2022/04/28 04:39:32;;;;;;;13.75;7.03;;;;;;;;;;5073030;28;20434;-76
2022/04/28 04:41:59;;;;;;;15.50;8.60;;;;;;;;;;5065334;28;20036;-76
2022/04/28 04:44:25;;;;;;;15.95;8.40;;;;;;;;;;5058116;28;20037;-76
2022/04/28 04:46:51;;;;;;;12.63;6.63;;;;;;;;;;5052290;28;20033;-76
2022/04/28 04:49:17;;;;;;;11.73;6.43;;;;;;;;;;5050793;28;20037;-76
2022/04/28 04:51:44;;;;;;;12.85;6.68;;;;;;;;;;5041042;28;20021;-76
2022/04/28 04:54:10;;;;;;;13.05;6.20;;;;;;;;;;5052687;28;20072;-76
2022/04/28 04:56:36;;;;;;;12.13;6.10;;;;;;;;;;5051368;28;20056;-76
2022/04/28 04:59:02;;;;;;;15.20;7.00;;;;;;;;;;5052925;28;20037;-76
2022/04/28 05:01:29;;;;;;;17.23;6.75;;;;;;;;;;5041422;28;20036;-76
2022/04/28 05:03:55;;;;;;;11.57;5.65;;;;;;;;;;5038356;28;20116;-76
2022/04/28 05:06:21;;;;;;;12.75;6.28;;;;;;;;;;5042785;28;20454;-76
2022/04/28 05:08:47;;;;;;;13.25;6.68;;;;;;;;;;5052323;28;20037;-76
2022/04/28 05:11:13;;;;;;;14.40;7.07;;;;;;;;;;5051232;28;20028;-76
2022/04/28 05:13:39;;;;;;;12.75;6.80;;;;;;;;;;5055371;28;20041;-76
2022/04/28 05:16:06;;;;;;;14.38;7.28;;;;;;;;;;5060073;28;20545;-76
2022/04/28 05:18:32;;;;;;;13.93;8.40;;;;;;;;;;5051569;28;20044;-76
2022/04/28 05:20:58;;;;;;;19.80;7.53;;;;;;;;;;5043097;28;20036;-76
2022/04/28 05:23:24;;;;;;;18.73;7.47;;;;;;;;;;5049458;28;20045;-76
2022/04/28 05:25:50;;;;;;;17.05;8.50;;;;;;;;;;5051233;28;20049;-76
2022/04/28 05:28:16;;;;;;;16.77;7.70;;;;;;;;;;5051715;28;20473;-76
2022/04/28 05:30:43;;;;;;;22.15;10.13;;;;;;;;;;5051944;28;20035;-76
2022/04/28 05:33:09;;;;;;;26.38;12.00;;;;;;;;;;5052785;28;20043;-76
2022/04/28 05:35:39;;;;;;;27.77;10.65;;;;;;;;;;5042943;28;20032;-76
2022/04/28 05:38:05;;;;;;;14.88;8.57;;;;;;;;;;5043561;28;20037;-75
2022/04/28 05:40:31;;;;;;;20.70;8.43;;;;;;;;;;5045970;28;20071;-76
2022/04/28 05:45:42;;;;;;;15.73;7.97;;;;;;;;;;5049698;28;20047;-78
2022/04/28 05:48:11;;;;;;;15.43;7.68;;;;;;;;;;5042561;28;20037;-76
2022/04/28 05:50:41;;;;;;;17.77;8.57;;;;;;;;;;5047005;28;20029;-76
2022/04/28 05:53:07;;;;;;;15.02;7.75;;;;;;;;;;5030965;28;20475;-76
2022/04/28 05:55:33;;;;;;;15.88;7.03;;;;;;;;;;5047603;28;20108;-76
2022/04/28 05:58:00;;;;;;;13.60;6.93;;;;;;;;;;5050572;28;20037;-76
2022/04/28 06:00:29;;;;;;;13.73;7.38;;;;;;;;;;5050545;28;20044;-76
2022/04/28 06:02:56;;;;;;;12.57;7.13;;;;;;;;;;5051049;28;20060;-75
2022/04/28 06:05:22;;;;;;;15.82;8.20;;;;;;;;;;5049536;28;20037;-76
2022/04/28 06:07:49;;;;;;;14.82;8.63;;;;;;;;;;5050602;28;20070;-76
2022/04/28 06:10:15;;;;;;;9.50;6.70;;;;;;;;;;5049424;28;20035;-75
2022/04/28 06:12:41;;;;;;;8.82;5.97;;;;;;;;;;5050750;28;20025;-76
2022/04/28 06:15:08;;;;;;;9.70;4.90;;;;;;;;;;5049578;28;20099;-76
2022/04/28 06:17:34;;;;;;;11.57;4.63;;;;;;;;;;5031575;28;20037;-76
2022/04/28 06:20:00;;;;;;;12.00;6.35;;;;;;;;;;5044169;28;20071;-75
2022/04/28 06:22:26;;;;;;;10.68;6.30;;;;;;;;;;5042359;28;20063;-76
2022/04/28 06:24:52;;;;;;;14.65;6.65;;;;;;;;;;5047078;28;20063;-76
2022/04/28 06:27:19;;;;;;;12.77;6.65;;;;;;;;;;5030804;28;20065;-76
2022/04/28 06:29:45;;;;;;;10.25;7.18;;;;;;;;;;5042163;28;20029;-76
2022/04/28 06:32:12;;;;;;;17.00;10.43;;;;;;;;;;5050240;28;20025;-76
2022/04/28 06:34:38;;;;;;;15.65;9.52;;;;;;;;;;5042138;28;20047;-76
2022/04/28 06:37:05;;;;;;;16.00;10.13;;;;;;;;;;5049820;28;20075;-76
2022/04/28 06:39:31;;;;;;;24.88;11.20;;;;;;;;;;5049835;28;20033;-76
2022/04/28 06:41:57;;;;;;;21.15;13.35;;;;;;;;;;5049757;28;20064;-76
2022/04/28 06:44:23;;;;;;;19.40;13.98;;;;;;;;;;5069030;28;20079;-75
2022/04/28 06:46:49;;;;;;;20.73;14.38;;;;;;;;;;5056192;28;20078;-76
2022/04/28 06:49:15;;;;;;;29.73;13.50;;;;;;;;;;5050234;28;20036;-76
2022/04/28 06:51:41;;;;;;;15.98;10.32;;;;;;;;;;5048530;28;20478;-76
2022/04/28 06:54:08;;;;;;;15.63;11.85;;;;;;;;;;5049888;28;20533;-76
2022/04/28 06:56:34;;;;;;;14.80;10.65;;;;;;;;;;5042042;28;20032;-76
2022/04/28 06:59:00;;;;;;;18.23;11.73;;;;;;;;;;5049921;28;20102;-76
2022/04/28 07:01:26;;;;;;;14.00;9.13;;;;;;;;;;5049421;28;20417;-76
2022/04/28 07:03:52;;;;;;;15.13;8.02;;;;;;;;;;5042878;28;20045;-76
2022/04/28 07:06:19;;;;;;;14.00;10.07;;;;;;;;;;5044521;28;20419;-76
2022/04/28 07:08:45;;;;;;;13.70;10.32;;;;;;;;;;5049155;28;20059;-76
2022/04/28 07:11:11;;;;;;;17.00;11.82;;;;;;;;;;5048943;28;20553;-76
2022/04/28 07:13:37;;;;;;;15.18;11.32;;;;;;;;;;5046828;28;20075;-76
2022/04/28 07:16:04;;;;;;;14.93;9.95;;;;;;;;;;5049225;28;20033;-76
2022/04/28 07:18:30;;;;;;;9.55;7.50;;;;;;;;;;5048943;28;20053;-76
2022/04/28 07:20:58;;;;;;;12.40;9.00;;;;;;;;;;5049713;28;20071;-76
2022/04/28 07:23:24;;;;;;;12.48;7.80;;;;;;;;;;5048673;28;20460;-76
2022/04/28 07:25:50;;;;;;;12.43;8.20;;;;;;;;;;5058460;28;20063;-76
2022/04/28 07:28:16;;;;;;;15.68;7.68;;;;;;;;;;5049431;28;20110;-76
2022/04/28 07:30:42;;;;;;;9.73;5.80;;;;;;;;;;5049270;28;20025;-76
2022/04/28 07:33:08;;;;;;;10.27;6.13;;;;;;;;;;5048578;28;20095;-76
2022/04/28 07:35:35;;;;;;;14.07;6.80;;;;;;;;;;5048344;28;20490;-76
2022/04/28 07:38:01;;;;;;;16.08;6.70;;;;;;;;;;5049406;28;20033;-76
2022/04/28 07:40:27;;;;;;;10.00;6.50;;;;;;;;;;5049286;28;20071;-76
2022/04/28 07:42:53;;;;;;;11.18;5.65;;;;;;;;;;5049231;28;20098;-76
2022/04/28 07:45:20;;;;;;;8.90;4.03;;;;;;;;;;5048883;28;20056;-76
2022/04/28 07:47:46;;;;;;;15.10;4.63;;;;;;;;;;5048836;28;20025;-76
2022/04/28 07:50:12;;;;;;;12.70;4.00;;;;;;;;;;5032902;28;20029;-76
2022/04/28 07:52:39;;;;;;;11.68;4.63;;;;;;;;;;5048303;28;20039;-76
2022/04/28 07:55:06;;;;;;;8.90;4.45;;;;;;;;;;5049320;28;20679;-76
2022/04/28 07:57:32;;;;;;;7.80;3.95;;;;;;;;;;5045309;28;20033;-76
2022/04/28 07:59:58;;;;;;;12.65;4.60;;;;;;;;;;5055987;28;20364;-76
2022/04/28 08:02:24;;;;;;;10.73;4.88;;;;;;;;;;5048596;28;20079;-76
2022/04/28 08:04:50;;;;;;;10.57;4.50;;;;;;;;;;5059531;28;20044;-76
2022/04/28 08:07:16;;;;;;;10.90;4.70;;;;;;;;;;5057111;28;20217;-76
2022/04/28 08:09:42;;;;;;;9.50;4.32;;;;;;;;;;5050689;28;20120;-76
2022/04/28 08:12:09;;;;;;;9.07;3.90;;;;;;;;;;5052493;28;20040;-76
2022/04/28 08:14:35;;;;;;;8.82;4.05;;;;;;;;;;5053645;28;20033;-76
2022/04/28 08:17:01;;;;;;;7.97;4.22;;;;;;;;;;5056139;28;20104;-76
2022/04/28 08:19:27;;;;;;;8.43;4.22;;;;;;;;;;5053224;28;20037;-76
2022/04/28 08:21:53;;;;;;;8.55;4.30;;;;;;;;;;5052043;28;20063;-76
2022/04/28 08:24:19;;;;;;;8.82;4.40;;;;;;;;;;5061333;28;20052;-76
2022/04/28 08:26:45;;;;;;;11.63;5.10;;;;;;;;;;5065945;28;20064;-76
2022/04/28 08:29:11;;;;;;;9.90;4.82;;;;;;;;;;5054621;28;20037;-76
2022/04/28 08:31:43;;;;;;;10.07;5.75;;;;;;;;;;5034085;28;20032;-76
2022/04/28 08:34:10;;;;;;;8.45;4.30;;;;;;;;;;5052626;28;20386;-76
2022/04/28 08:36:36;;;;;;;8.95;4.60;;;;;;;;;;5052149;28;20029;-76
2022/04/28 08:39:02;;;;;;;14.32;4.78;;;;;;;;;;5051462;28;20033;-76
2022/04/28 08:41:32;;;;;;;8.02;4.38;;;;;;;;;;5046420;28;20025;-76
2022/04/28 08:44:00;;;;;;;11.50;4.60;;;;;;;;;;5052334;28;20074;-76
2022/04/28 08:49:14;;;;;;;8.27;4.15;;;;;;;;;;5052057;28;20226;-75
2022/04/28 08:51:41;;;;;;;8.85;4.40;;;;;;;;;;5052549;28;20029;-76
2022/04/28 08:54:09;;;;;;;9.38;5.05;;;;;;;;;;5052377;28;20045;-76
2022/04/28 08:56:35;;;;;;;9.88;4.35;;;;;;;;;;5047364;28;20074;-76
2022/04/28 08:59:01;;;;;;;11.23;5.90;;;;;;;;;;5052897;28;20072;-76
2022/04/28 09:01:28;;;;;;;8.50;4.45;;;;;;;;;;5052295;28;20036;-76
2022/04/28 09:03:57;;;;;;;7.68;4.85;;;;;;;;;;5052038;28;20033;-76
2022/04/28 09:06:24;;;;;;;7.60;4.50;;;;;;;;;;5037835;28;20029;-76
2022/04/28 09:08:51;;;;;;;10.30;4.82;;;;;;;;;;5051624;28;20045;-76
2022/04/28 09:11:21;;;;;;;11.23;3.90;;;;;;;;;;5051685;28;20100;-76
2022/04/28 09:14:09;;;;;;;7.20;3.75;;;;;;;;;;5058083;28;20051;-75
2022/04/28 09:16:35;;;;;;;8.25;5.32;;;;;;;;;;5049237;28;20048;-76
2022/04/28 09:19:01;;;;;;;10.45;4.70;;;;;;;;;;5052227;28;20040;-76
2022/04/28 09:21:27;;;;;;;11.02;4.63;;;;;;;;;;5042479;28;20036;-76
2022/04/28 09:23:53;;;;;;;7.70;5.05;;;;;;;;;;5043160;28;20037;-76
2022/04/28 09:26:23;;;;;;;6.80;4.18;;;;;;;;;;5050706;28;20494;-75
2022/04/28 09:28:49;;;;;;;12.05;4.75;;;;;;;;;;5051735;28;20036;-76
2022/04/28 09:31:15;;;;;;;8.95;4.35;;;;;;;;;;5048883;28;20029;-76
2022/04/28 09:33:41;;;;;;;9.00;4.20;;;;;;;;;;5058670;28;20700;-76
2022/04/28 09:36:08;;;;;;;8.02;3.78;;;;;;;;;;5046445;28;20135;-76
2022/04/28 09:38:34;;;;;;;8.18;4.35;;;;;;;;;;5047501;28;20089;-76
2022/04/28 09:43:45;;;;;;;5.70;3.13;;;;;;;;;;5055245;28;20083;-76
2022/04/28 09:46:11;;;;;;;5.53;3.75;;;;;;;;;;5051939;28;20037;-76
2022/04/28 09:48:42;;;;;;;8.27;3.30;;;;;;;;;;5039962;28;20079;-76
2022/04/28 09:51:11;;;;;;;6.05;3.47;;;;;;;;;;5051380;28;20025;-76
2022/04/28 09:53:37;;;;;;;5.18;3.22;;;;;;;;;;5050864;28;20688;-76
2022/04/28 09:56:05;;;;;;;5.20;3.40;;;;;;;;;;5051139;28;20025;-75
2022/04/28 09:58:32;;;;;;;8.45;3.63;;;;;;;;;;5035656;28;20121;-76
2022/04/28 10:01:01;;;;;;;11.30;3.95;;;;;;;;;;5051050;28;20074;-76
2022/04/28 10:03:33;;;;;;;7.45;3.58;;;;;;;;;;5050977;28;20066;-76
2022/04/28 10:05:59;;;;;;;6.45;3.45;;;;;;;;;;5057921;28;20469;-76
2022/04/28 10:08:26;;;;;;;11.00;3.67;;;;;;;;;;5053020;28;20064;-76
2022/04/28 10:10:57;;;;;;;7.70;3.22;;;;;;;;;;5051195;28;20029;-76
2022/04/28 10:13:23;;;;;;;13.70;4.32;;;;;;;;;;5042835;28;20858;-76
2022/04/28 10:15:55;;;;;;;7.90;3.85;;;;;;;;;;5050677;28;20103;-76
2022/04/28 10:18:23;;;;;;;9.73;3.80;;;;;;;;;;5055817;28;20033;-76
2022/04/28 10:20:50;;;;;;;12.82;4.30;;;;;;;;;;5059609;28;20064;-76
2022/04/28 10:23:18;;;;;;;12.40;4.00;;;;;;;;;;5060084;28;20045;-76
2022/04/28 10:34:19;;;;;;;10.45;4.72;;;;;;;;;;5051100;28;20086;-76
2022/04/28 10:36:52;;;;;;;12.43;4.65;;;;;;;;;;5050207;28;20037;-76
2022/04/28 10:39:31;;;;;;;8.88;4.38;;;;;;;;;;5060584;28;20040;-76
2022/04/28 10:41:57;;;;;;;9.48;4.80;;;;;;;;;;5061294;28;20036;-76
2022/04/28 10:44:29;;;;;;;7.03;4.25;;;;;;;;;;5059807;28;20867;-76
2022/04/28 10:46:58;;;;;;;8.32;4.13;;;;;;;;;;5049117;28;20034;-76
2022/04/28 10:49:25;;;;;;;6.78;3.90;;;;;;;;;;5033559;28;20029;-76
2022/04/28 10:51:56;;;;;;;8.95;3.90;;;;;;;;;;5045918;28;20029;-76
2022/04/28 10:54:23;;;;;;;10.85;3.60;;;;;;;;;;5060055;28;20033;-76
2022/04/28 10:56:54;;;;;;;7.78;3.78;;;;;;;;;;5057437;28;20051;-76
2022/04/28 10:59:35;;;;;;;6.20;3.92;;;;;;;;;;5060766;28;20033;-76
2022/04/28 11:02:15;;;;;;;7.97;3.60;;;;;;;;;;5048074;28;20513;-76
2022/04/28 11:04:43;;;;;;;6.15;3.35;;;;;;;;;;5039368;28;20150;-76
2022/04/28 11:07:11;;;;;;;6.97;3.63;;;;;;;;;;5048586;28;20024;-76
2022/04/28 11:09:37;;;;;;;8.88;4.35;;;;;;;;;;5046582;28;20754;-76
2022/04/28 11:12:11;;;;;;;9.48;5.10;;;;;;;;;;5053801;28;20057;-76
2022/04/28 11:14:48;;;;;;;7.82;3.90;;;;;;;;;;5035502;28;20033;-76
2022/04/28 11:17:14;;;;;;;14.27;5.13;;;;;;;;;;5048766;28;20065;-76
2022/04/28 11:19:41;;;;;;;11.10;4.78;;;;;;;;;;5049341;28;20033;-76
2022/04/28 11:22:08;;;;;;;8.95;5.13;;;;;;;;;;5046621;28;20869;-76
2022/04/28 11:24:34;;;;;;;9.98;5.20;;;;;;;;;;5048956;28;20052;-76
2022/04/28 11:27:00;;;;;;;12.23;4.95;;;;;;;;;;5055054;28;20040;-76
2022/04/28 11:29:28;;;;;;;8.90;5.35;;;;;;;;;;5046609;28;20033;-76
2022/04/28 11:31:54;;;;;;;7.53;5.30;;;;;;;;;;5049170;28;20103;-76
2022/04/28 11:34:21;;;;;;;10.00;4.70;;;;;;;;;;5046101;28;20041;-76
2022/04/28 11:36:47;;;;;;;8.65;4.82;;;;;;;;;;5049892;28;20029;-76
2022/04/28 11:39:13;;;;;;;7.95;4.95;;;;;;;;;;5044758;28;20033;-76
2022/04/28 11:41:40;;;;;;;7.15;5.20;;;;;;;;;;5047641;28;20383;-76
2022/04/28 11:44:15;;;;;;;8.25;4.57;;;;;;;;;;5046396;28;20119;-76
2022/04/28 11:46:44;;;;;;;10.43;4.20;;;;;;;;;;5048799;28;20135;-76
2022/04/28 11:49:10;;;;;;;6.90;4.70;;;;;;;;;;5048284;28;20043;-76
2022/04/28 11:51:37;;;;;;;13.75;4.57;;;;;;;;;;5052167;28;20478;-76
2022/04/28 11:54:19;;;;;;;7.78;4.00;;;;;;;;;;5050052;28;20029;-76
2022/04/28 11:56:45;;;;;;;8.65;4.35;;;;;;;;;;5034485;28;20108;-76
2022/04/28 11:59:11;;;;;;;13.20;4.60;;;;;;;;;;5050034;28;20580;-76
2022/04/28 12:01:39;;;;;;;7.18;4.47;;;;;;;;;;5048875;28;20059;-76
2022/04/28 12:04:06;;;;;;;7.53;3.65;;;;;;;;;;5057491;28;20036;-76
2022/04/28 12:06:32;;;;;;;6.65;3.72;;;;;;;;;;5041309;28;20442;-76
2022/04/28 12:14:21;;;;;;;9.13;3.60;;;;;;;;;;5049024;28;20116;-76
2022/04/28 12:14:31;;;;;;;6.70;4.07;;;;;;;;;;5049811;28;20091;-76
2022/04/28 12:19:54;;;;;;;9.40;3.78;;;;;;;;;;5047788;28;20167;-76
2022/04/28 12:22:37;;;;;;;7.47;4.10;;;;;;;;;;5044923;28;20041;-76
2022/04/28 12:25:07;;;;;;;7.25;3.72;;;;;;;;;;5044906;28;20142;-76
2022/04/28 12:27:40;;;;;;;8.95;3.10;;;;;;;;;;5053177;28;20112;-76
2022/04/28 12:30:10;;;;;;;4.90;3.28;;;;;;;;;;5048638;28;20040;-76
2022/04/28 12:32:48;;;;;;;7.45;3.50;;;;;;;;;;5048476;28;20025;-76
2022/04/28 12:35:22;;;;;;;7.75;3.40;;;;;;;;;;5050777;28;20033;-76
2022/04/28 12:37:53;;;;;;;10.27;3.33;;;;;;;;;;5052048;28;20040;-76
2022/04/28 12:40:19;;;;;;;6.97;3.30;;;;;;;;;;5061701;28;20033;-76
2022/04/28 12:42:46;;;;;;;9.40;3.60;;;;;;;;;;5044722;28;20036;-76
2022/04/28 12:45:12;;;;;;;7.28;3.53;;;;;;;;;;5041287;28;20064;-76
2022/04/28 12:47:40;;;;;;;8.60;3.65;;;;;;;;;;5048004;28;20723;-76
2022/04/28 12:50:19;;;;;;;8.57;3.22;;;;;;;;;;5049616;28;20681;-76
2022/04/28 12:52:46;;;;;;;7.90;3.38;;;;;;;;;;5051633;28;20037;-76
2022/04/28 12:55:13;;;;;;;6.15;3.13;;;;;;;;;;5032605;28;20375;-76
2022/04/28 12:57:39;;;;;;;5.70;2.35;;;;;;;;;;5054474;28;20100;-76
2022/04/28 13:00:06;;;;;;;11.38;3.42;;;;;;;;;;5062551;28;20036;-76
2022/04/28 13:02:32;;;;;;;7.65;2.65;;;;;;;;;;5058989;28;20032;-76
2022/04/28 13:05:09;;;;;;;7.63;3.00;;;;;;;;;;5050408;28;20041;-76
2022/04/28 13:07:35;;;;;;;6.65;3.22;;;;;;;;;;5062135;28;20020;-76
2022/04/28 13:10:01;;;;;;;8.18;3.58;;;;;;;;;;5053483;28;20037;-76
2022/04/28 13:12:27;;;;;;;5.50;3.20;;;;;;;;;;5051790;28;20035;-76
2022/04/28 13:14:53;;;;;;;7.68;2.60;;;;;;;;;;5033070;28;20103;-76
2022/04/28 13:17:19;;;;;;;5.50;2.80;;;;;;;;;;5051263;28;20520;-76
2022/04/28 13:19:45;;;;;;;5.45;2.70;;;;;;;;;;5052179;28;20044;-76
2022/04/28 13:22:11;;;;;;;7.22;3.03;;;;;;;;;;5051690;28;20044;-76
2022/04/28 13:24:37;;;;;;;4.13;2.45;;;;;;;;;;5051430;28;20064;-76
2022/04/28 13:27:03;;;;;;;5.07;2.42;;;;;;;;;;5058841;28;20033;-76
2022/04/28 13:29:29;;;;;;;9.10;2.53;;;;;;;;;;5060296;28;20037;-76
2022/04/28 13:31:55;;;;;;;5.93;2.70;;;;;;;;;;5053532;28;20126;-76
2022/04/28 13:34:21;;;;;;;11.98;2.60;;;;;;;;;;5051501;28;20040;-76
2022/04/28 13:36:47;;;;;;;8.18;2.72;;;;;;;;;;5044352;28;20134;-76
2022/04/28 13:39:14;;;;;;;7.80;2.33;;;;;;;;;;5057250;28;20665;-76
2022/04/28 13:41:41;;;;;;;9.05;2.10;;;;;;;;;;5051514;28;20063;-76
2022/04/28 13:44:07;;;;;;;4.53;1.92;;;;;;;;;;5051905;28;20033;-76
2022/04/28 13:46:33;;;;;;;4.20;2.00;;;;;;;;;;5051371;28;20462;-76
2022/04/28 13:48:59;;;;;;;6.38;2.03;;;;;;;;;;5051386;28;20036;-76
2022/04/28 13:51:25;;;;;;;10.30;1.95;;;;;;;;;;5051153;28;20033;-76
2022/04/28 13:53:51;;;;;;;6.53;1.83;;;;;;;;;;5050502;28;20029;-76
2022/04/28 13:56:17;;;;;;;6.05;1.95;;;;;;;;;;5050877;28;20402;-76
2022/04/28 13:58:44;;;;;;;4.57;1.67;;;;;;;;;;5054019;28;20063;-76
2022/04/28 14:01:11;;;;;;;5.03;1.70;;;;;;;;;;5050590;28;20474;-76
2022/04/28 14:03:37;;;;;;;10.40;2.25;;;;;;;;;;5050290;28;20061;-76
2022/04/28 14:06:04;;;;;;;3.08;1.60;;;;;;;;;;5050742;28;20024;-76
2022/04/28 14:08:30;;;;;;;6.88;1.98;;;;;;;;;;5051334;28;20090;-76
2022/04/28 14:10:59;;;;;;;4.32;2.05;;;;;;;;;;5050637;28;20029;-76
2022/04/28 14:13:25;;;;;;;5.28;1.70;;;;;;;;;;5044580;28;20026;-76
2022/04/28 14:15:51;;;;;;;8.43;1.92;;;;;;;;;;5064199;28;20041;-76
2022/04/28 14:18:17;;;;;;;6.63;1.70;;;;;;;;;;5054065;28;20041;-76
2022/04/28 14:20:44;;;;;;;4.03;1.83;;;;;;;;;;5055138;28;20048;-76
2022/04/28 14:23:10;;;;;;;4.60;2.00;;;;;;;;;;5040445;28;20119;-76
2022/04/28 14:25:36;;;;;;;5.28;2.00;;;;;;;;;;5057471;28;20477;-76
2022/04/28 14:28:06;;;;;;;5.07;1.75;;;;;;;;;;5050744;28;20037;-76
2022/04/28 14:30:33;;;;;;;4.20;1.55;;;;;;;;;;5037069;28;20054;-76
2022/04/28 14:32:59;;;;;;;5.70;1.92;;;;;;;;;;5037752;28;20040;-76
2022/04/28 14:35:25;;;;;;;5.80;1.70;;;;;;;;;;5050089;28;20044;-76
2022/04/28 14:37:51;;;;;;;9.23;1.88;;;;;;;;;;5040773;28;20029;-76
2022/04/28 14:40:18;;;;;;;4.43;1.63;;;;;;;;;;5057061;28;20041;-76
2022/04/28 14:42:44;;;;;;;3.45;1.65;;;;;;;;;;5049017;28;20047;-76
2022/04/28 14:45:10;;;;;;;3.00;1.58;;;;;;;;;;5039371;28;20048;-76
2022/04/28 14:47:36;;;;;;;4.13;1.50;;;;;;;;;;5048424;28;20029;-76
2022/04/28 14:52:48;;;;;;;4.38;1.35;;;;;;;;;;5049306;28;20887;-76
2022/04/28 14:55:14;;;;;;;5.38;1.70;;;;;;;;;;5043903;28;20052;-76
2022/04/28 14:57:41;;;;;;;6.80;1.65;;;;;;;;;;5049798;28;20107;-76
2022/04/28 15:00:12;;;;;;;3.22;1.50;;;;;;;;;;5046592;28;20475;-75
2022/04/28 15:02:38;;;;;;;4.45;1.35;;;;;;;;;;5037180;28;20071;-76
2022/04/28 15:05:04;;;;;;;3.20;1.15;;;;;;;;;;5029587;28;20513;-76
2022/04/28 15:07:31;;;;;;;4.18;1.70;;;;;;;;;;5049579;28;20035;-76
2022/04/28 15:09:59;;;;;;;6.35;1.55;;;;;;;;;;5047989;28;20048;-76
2022/04/28 15:12:25;;;;;;;5.30;1.30;;;;;;;;;;5049167;28;20032;-76
2022/04/28 15:14:51;;;;;;;4.72;1.55;;;;;;;;;;5037446;28;20045;-76